»·PEaware :: WSN40 KOTH-KPDX

WSN40 :: KOTH-KPDX

FLIGHT INFORMATION

Flight Status: Arrived
Operator: Unknown
More flights by this operator :: More flights under this callsign
Pilot: Arnold Y. (19526)
Aircraft: SOCATA TBM-900
(TBM9)
More flights by this aircraft type
Origin: KOTH North Bend Mun
United States
Destination: KPDX Portland Intl
United States
More flights between these airports :: More routes between these airports
Route: +OTH V287 BTG
File this flight plan on PilotEdge
Remarks:
Altitude:
(Current/Filed)
13,000ft
Speed:
(Current/Filed)
300kts
Departed: 30-Jul-20 09:11 PM
Arrived: 30-Jul-20 10:01 PM
Distance/Time
Traveled:
148nm/0:50
Distance/Time
To Go:
Arrived

Flight Plot

Page will automatically refresh every two minutes.


Map Options




Map Legend


Flown Route
Filed Route
Departure Airport
Arrival Airport
Navaid (VOR, NDB)
Fix

Horizontal Profiles

Position Reports

Time Latitude Longitude Heading Altitude Ground
Speed
30-Jul-20 20:50 43.416742 -124.246749 330 28ft 0kts
30-Jul-20 20:51 43.416742 -124.246749 330 28ft 0kts
30-Jul-20 20:52 43.416742 -124.246749 330 28ft 0kts
30-Jul-20 20:53 43.416742 -124.246749 330 28ft 0kts
30-Jul-20 20:54 43.416742 -124.246749 330 28ft 0kts
30-Jul-20 20:55 43.416742 -124.246749 330 28ft 0kts
30-Jul-20 20:56 43.416742 -124.246749 330 28ft 0kts
30-Jul-20 20:57 43.416742 -124.246749 330 28ft 0kts
30-Jul-20 20:58 43.416742 -124.246749 330 28ft 0kts
30-Jul-20 20:59 43.416742 -124.246749 330 28ft 0kts
30-Jul-20 21:00 43.416742 -124.246749 330 28ft 0kts
30-Jul-20 21:01 43.416742 -124.246749 330 28ft 0kts
30-Jul-20 21:02 43.416742 -124.246749 330 28ft 0kts
30-Jul-20 21:03 43.416742 -124.246749 330 28ft 0kts
30-Jul-20 21:04 43.417775 -124.246510 59 22ft 6kts
30-Jul-20 21:06 43.418720 -124.247771 240 19ft 10kts
30-Jul-20 21:07 43.417512 -124.250736 241 23ft 14kts
30-Jul-20 21:08 43.415700 -124.255143 240 15ft 13kts
30-Jul-20 21:09 43.413904 -124.259753 285 2ft 8kts
30-Jul-20 21:10 43.414908 -124.260154 60 3ft 19kts
30-Jul-20 21:11 43.433261 -124.223965 23 913ft 144kts
30-Jul-20 21:12 43.451492 -124.246481 230 2558ft 134kts
30-Jul-20 21:13 43.430027 -124.289345 237 4248ft 138kts
30-Jul-20 21:14 43.411235 -124.336953 273 6039ft 147kts
30-Jul-20 21:15 43.442493 -124.330298 95 7672ft 167kts
30-Jul-20 21:16 43.433195 -124.267614 110 9276ft 163kts
30-Jul-20 21:17 43.422115 -124.205195 111 10960ft 166kts
30-Jul-20 21:18 43.440970 -124.152943 26 13001ft 200kts
30-Jul-20 21:19 43.502698 -124.116747 26 13799ft 234kts
30-Jul-20 21:20 43.562580 -124.081136 26 15440ft 228kts
30-Jul-20 21:21 43.623815 -124.044615 26 16712ft 234kts
30-Jul-20 21:22 43.689734 -124.005180 25 17020ft 275kts
30-Jul-20 21:23 43.765671 -123.959700 25 17006ft 301kts
30-Jul-20 21:23 43.831868 -123.919936 25 17003ft 307kts
30-Jul-20 21:25 43.925302 -123.863629 25 16994ft 309kts
30-Jul-20 21:26 44.005980 -123.814851 25 16976ft 310kts
30-Jul-20 21:26 44.061827 -123.781001 25 16959ft 310kts
30-Jul-20 21:28 44.061827 -123.781001 25 16959ft 310kts
30-Jul-20 21:28 44.061827 -123.781001 25 16959ft 310kts
30-Jul-20 21:29 44.061827 -123.781001 25 16959ft 310kts
30-Jul-20 21:30 44.061827 -123.781001 25 16959ft 310kts
30-Jul-20 21:31 44.061827 -123.781001 25 16959ft 310kts
30-Jul-20 21:32 44.126327 -123.741819 25 16933ft 310kts
30-Jul-20 21:33 44.207024 -123.692665 25 16909ft 309kts
30-Jul-20 21:34 44.285341 -123.644820 25 16886ft 309kts
30-Jul-20 21:35 44.364996 -123.596013 25 16973ft 307kts
30-Jul-20 21:36 44.444481 -123.547171 25 16972ft 308kts
30-Jul-20 21:37 44.524395 -123.497918 25 16972ft 308kts
30-Jul-20 21:38 44.604296 -123.448524 25 16973ft 308kts
30-Jul-20 21:39 44.684020 -123.399090 25 16973ft 309kts
30-Jul-20 21:40 44.764048 -123.349318 26 16974ft 309kts
30-Jul-20 21:41 44.844236 -123.299299 26 16961ft 309kts
30-Jul-20 21:42 44.924839 -123.248862 26 16958ft 310kts
30-Jul-20 21:43 45.005555 -123.198215 26 16878ft 312kts
30-Jul-20 21:44 45.087338 -123.146717 26 16206ft 320kts
30-Jul-20 21:45 45.170819 -123.093983 26 15186ft 321kts
30-Jul-20 21:46 45.254491 -123.040827 28 14137ft 315kts
30-Jul-20 21:47 45.291338 -122.934048 74 13045ft 294kts
30-Jul-20 21:48 45.315981 -122.818457 74 11990ft 289kts
30-Jul-20 21:49 45.340164 -122.704549 74 10931ft 287kts
30-Jul-20 21:50 45.364296 -122.592775 73 9887ft 282kts
30-Jul-20 21:51 45.384893 -122.484808 74 8850ft 273kts
30-Jul-20 21:52 45.404907 -122.378789 74 7824ft 272kts
30-Jul-20 21:53 45.441776 -122.290085 25 6682ft 278kts
30-Jul-20 21:54 45.507494 -122.312018 295 5291ft 274kts
30-Jul-20 21:55 45.537062 -122.407823 292 3751ft 209kts
30-Jul-20 21:56 45.548853 -122.466291 288 2254ft 92kts
30-Jul-20 21:57 45.558325 -122.502936 298 1314ft 99kts
30-Jul-20 21:58 45.572137 -122.537531 300 566ft 90kts
30-Jul-20 21:59 45.585004 -122.570467 300 28ft 83kts
30-Jul-20 22:00 45.586335 -122.577122 299 25ft 11kts
30-Jul-20 22:01 45.585448 -122.578201 210 25ft 7kts
30-Jul-20 22:02 45.585292 -122.578820 299 25ft 0kts

Navigation Log

Ident Type
Flight plan parsing failed, navigation log unavailable